Terminal Aerodrome Forecast
Issued by NWS

Home | Current Version | Previous Version | Text Only | Print | Product List | Glossary On
Versions: 1 2 3 4 5 6 7 8 9 10 11 12 13 14 15 16 17 18 19
000
FTUS41 KBGM 291857 AAB
TAFELM
TAF AMD
KELM 291857Z 2919/3018 22012KT P6SM -SHRA BKN050
      TEMPO 2919/2922 TSRA BKN050CB
     FM300100 VRB03KT P6SM -SHRA OVC100
     FM300300 00000KT P6SM OVC100
     FM301500 24006KT P6SM BKN060
     FM301700 25010KT P6SM SCT100 BKN250=

USA.gov is the U.S. government's official web portal to all federal, state and local government web resources and services.